FABL/BFN METAR and TAF weather

Enter ICAO airport designator
Station Type Date Time Source
FABL METAR 2019/08/19 23:00 UTC NOAA

FABL 192300Z AUTO 19006KT 9999 ///////// 06/M08 Q1030


Station Type Date Time Source
FABL Decoded METAR 2019/08/19 23:00 UTC NOAA

Bloemfontein, Bloemfontein Airport, South Africa (FABL) 29-06S 026-18E 1400M
Aug 19, 2019 - 07:00 PM EDT / 2019.08.19 2300 UTC
Wind: from the S (190 degrees) at 7 MPH (6 KT):0
Visibility: greater than 7 mile(s):0
Temperature: 42 F (6 C)
Dew Point: 17 F (-8 C)
Relative Humidity: 35%
Pressure (altimeter): 30.42 in. Hg (1030 hPa)
ob: FABL 192300Z AUTO 19006KT 9999 ///////// 06/M08 Q1030
cycle: 23

Station Type Date Time Source
FABL TAF 2019/08/19 18:07 UTC NOAA

TAF FABL 191600Z 1918/2018 21010KT CAVOK TX23/2013Z TN05/2005Z
BECMG 2003/2005 VRB03KT

Example: see airport list